sensor_id;sensor_type;location;lat;lon;timestamp;P1;durP1;ratioP1;P2;durP2;ratioP2
34902;SDS011;21114;44.840;0.214;2023-04-24T00:00:30;10.00;;;4.65;;
34902;SDS011;21114;44.840;0.214;2023-04-24T00:02:57;12.18;;;4.70;;
34902;SDS011;21114;44.840;0.214;2023-04-24T00:06:11;19.13;;;4.30;;
34902;SDS011;21114;44.840;0.214;2023-04-24T00:08:37;14.77;;;4.05;;
34902;SDS011;21114;44.840;0.214;2023-04-24T00:11:03;12.32;;;3.58;;
34902;SDS011;21114;44.840;0.214;2023-04-24T00:13:29;14.25;;;4.13;;
34902;SDS011;21114;44.840;0.214;2023-04-24T00:15:56;15.77;;;4.20;;
34902;SDS011;21114;44.840;0.214;2023-04-24T00:18:22;19.08;;;4.72;;
34902;SDS011;21114;44.840;0.214;2023-04-24T00:20:48;11.75;;;4.43;;
34902;SDS011;21114;44.840;0.214;2023-04-24T00:23:14;15.77;;;5.07;;
34902;SDS011;21114;44.840;0.214;2023-04-24T00:25:40;14.60;;;5.18;;
34902;SDS011;21114;44.840;0.214;2023-04-24T00:28:06;18.92;;;4.90;;
34902;SDS011;21114;44.840;0.214;2023-04-24T00:30:32;17.60;;;5.13;;
34902;SDS011;21114;44.840;0.214;2023-04-24T00:32:58;16.13;;;5.78;;
34902;SDS011;21114;44.840;0.214;2023-04-24T00:35:24;13.38;;;4.57;;
34902;SDS011;21114;44.840;0.214;2023-04-24T00:37:50;20.45;;;5.78;;
34902;SDS011;21114;44.840;0.214;2023-04-24T00:40:16;18.20;;;5.72;;
34902;SDS011;21114;44.840;0.214;2023-04-24T00:42:43;15.38;;;4.82;;
34902;SDS011;21114;44.840;0.214;2023-04-24T00:45:10;21.13;;;6.55;;
34902;SDS011;21114;44.840;0.214;2023-04-24T00:47:36;19.95;;;5.57;;
34902;SDS011;21114;44.840;0.214;2023-04-24T00:50:03;22.38;;;5.50;;
34902;SDS011;21114;44.840;0.214;2023-04-24T00:53:17;21.58;;;7.50;;
34902;SDS011;21114;44.840;0.214;2023-04-24T00:55:43;19.25;;;5.07;;
34902;SDS011;21114;44.840;0.214;2023-04-24T00:58:10;17.23;;;5.68;;
34902;SDS011;21114;44.840;0.214;2023-04-24T01:00:36;13.52;;;3.53;;
34902;SDS011;21114;44.840;0.214;2023-04-24T01:03:03;19.77;;;4.70;;
34902;SDS011;21114;44.840;0.214;2023-04-24T01:06:18;15.52;;;4.88;;
34902;SDS011;21114;44.840;0.214;2023-04-24T01:09:36;15.82;;;4.97;;
34902;SDS011;21114;44.840;0.214;2023-04-24T01:12:51;14.93;;;4.20;;
34902;SDS011;21114;44.840;0.214;2023-04-24T01:15:17;14.65;;;4.95;;
34902;SDS011;21114;44.840;0.214;2023-04-24T01:17:43;12.30;;;4.82;;
34902;SDS011;21114;44.840;0.214;2023-04-24T01:20:10;16.65;;;4.88;;
34902;SDS011;21114;44.840;0.214;2023-04-24T01:22:36;15.07;;;5.32;;
34902;SDS011;21114;44.840;0.214;2023-04-24T01:25:02;16.33;;;4.30;;
34902;SDS011;21114;44.840;0.214;2023-04-24T01:28:17;14.48;;;4.78;;
34902;SDS011;21114;44.840;0.214;2023-04-24T01:30:43;14.18;;;3.78;;
34902;SDS011;21114;44.840;0.214;2023-04-24T01:33:58;11.20;;;3.60;;
34902;SDS011;21114;44.840;0.214;2023-04-24T01:36:24;11.55;;;4.53;;
34902;SDS011;21114;44.840;0.214;2023-04-24T01:39:37;14.07;;;4.50;;
34902;SDS011;21114;44.840;0.214;2023-04-24T01:42:04;15.15;;;3.72;;
34902;SDS011;21114;44.840;0.214;2023-04-24T01:45:19;8.02;;;3.50;;
34902;SDS011;21114;44.840;0.214;2023-04-24T01:47:45;15.27;;;4.25;;
34902;SDS011;21114;44.840;0.214;2023-04-24T01:50:11;16.52;;;5.68;;
34902;SDS011;21114;44.840;0.214;2023-04-24T01:52:37;12.25;;;4.55;;
34902;SDS011;21114;44.840;0.214;2023-04-24T01:55:04;14.70;;;3.33;;
34902;SDS011;21114;44.840;0.214;2023-04-24T01:57:31;11.65;;;3.40;;
34902;SDS011;21114;44.840;0.214;2023-04-24T02:00:36;11.60;;;5.07;;
34902;SDS011;21114;44.840;0.214;2023-04-24T02:03:02;13.93;;;3.95;;
34902;SDS011;21114;44.840;0.214;2023-04-24T02:05:28;19.27;;;3.85;;
34902;SDS011;21114;44.840;0.214;2023-04-24T02:07:54;9.75;;;3.10;;
34902;SDS011;21114;44.840;0.214;2023-04-24T02:10:20;13.38;;;3.42;;
34902;SDS011;21114;44.840;0.214;2023-04-24T02:12:46;11.82;;;3.88;;
34902;SDS011;21114;44.840;0.214;2023-04-24T02:15:13;17.52;;;6.47;;
34902;SDS011;21114;44.840;0.214;2023-04-24T02:17:39;13.95;;;4.20;;
34902;SDS011;21114;44.840;0.214;2023-04-24T02:20:06;10.55;;;2.63;;
34902;SDS011;21114;44.840;0.214;2023-04-24T02:26:13;8.70;;;3.58;;
34902;SDS011;21114;44.840;0.214;2023-04-24T02:28:40;7.03;;;3.08;;
34902;SDS011;21114;44.840;0.214;2023-04-24T02:31:06;13.18;;;5.03;;
34902;SDS011;21114;44.840;0.214;2023-04-24T02:33:32;15.88;;;4.28;;
34902;SDS011;21114;44.840;0.214;2023-04-24T02:35:58;12.07;;;2.95;;
34902;SDS011;21114;44.840;0.214;2023-04-24T02:38:24;7.80;;;3.30;;
34902;SDS011;21114;44.840;0.214;2023-04-24T02:40:50;10.85;;;3.47;;
34902;SDS011;21114;44.840;0.214;2023-04-24T02:43:17;10.05;;;3.10;;
34902;SDS011;21114;44.840;0.214;2023-04-24T02:45:43;11.90;;;3.20;;
34902;SDS011;21114;44.840;0.214;2023-04-24T02:48:09;9.15;;;2.85;;
34902;SDS011;21114;44.840;0.214;2023-04-24T02:50:35;7.85;;;2.50;;
34902;SDS011;21114;44.840;0.214;2023-04-24T02:53:01;10.38;;;3.45;;
34902;SDS011;21114;44.840;0.214;2023-04-24T02:55:27;9.05;;;2.80;;
34902;SDS011;21114;44.840;0.214;2023-04-24T02:57:53;10.80;;;4.25;;
34902;SDS011;21114;44.840;0.214;2023-04-24T03:00:19;7.90;;;2.47;;
34902;SDS011;21114;44.840;0.214;2023-04-24T03:02:45;7.07;;;3.92;;
34902;SDS011;21114;44.840;0.214;2023-04-24T03:05:12;9.95;;;3.25;;
34902;SDS011;21114;44.840;0.214;2023-04-24T03:07:38;11.02;;;4.25;;
34902;SDS011;21114;44.840;0.214;2023-04-24T03:10:04;9.60;;;2.30;;
34902;SDS011;21114;44.840;0.214;2023-04-24T03:13:19;13.40;;;5.13;;
34902;SDS011;21114;44.840;0.214;2023-04-24T03:15:45;7.88;;;3.72;;
34902;SDS011;21114;44.840;0.214;2023-04-24T03:18:11;8.40;;;3.42;;
34902;SDS011;21114;44.840;0.214;2023-04-24T03:20:38;9.68;;;3.50;;
34902;SDS011;21114;44.840;0.214;2023-04-24T03:23:04;6.90;;;2.45;;
34902;SDS011;21114;44.840;0.214;2023-04-24T03:25:30;10.93;;;2.65;;
34902;SDS011;21114;44.840;0.214;2023-04-24T03:27:56;6.97;;;2.75;;
34902;SDS011;21114;44.840;0.214;2023-04-24T03:30:22;6.40;;;3.53;;
34902;SDS011;21114;44.840;0.214;2023-04-24T03:32:48;11.93;;;3.55;;
34902;SDS011;21114;44.840;0.214;2023-04-24T03:35:14;10.30;;;3.42;;
34902;SDS011;21114;44.840;0.214;2023-04-24T03:37:40;4.97;;;2.78;;
34902;SDS011;21114;44.840;0.214;2023-04-24T03:40:06;4.63;;;3.58;;
34902;SDS011;21114;44.840;0.214;2023-04-24T03:43:21;8.60;;;2.95;;
34902;SDS011;21114;44.840;0.214;2023-04-24T03:46:36;6.50;;;2.42;;
34902;SDS011;21114;44.840;0.214;2023-04-24T03:49:02;8.32;;;3.78;;
34902;SDS011;21114;44.840;0.214;2023-04-24T03:51:28;11.85;;;3.67;;
34902;SDS011;21114;44.840;0.214;2023-04-24T03:53:56;5.97;;;3.33;;
34902;SDS011;21114;44.840;0.214;2023-04-24T03:56:22;11.63;;;2.55;;
34902;SDS011;21114;44.840;0.214;2023-04-24T03:58:48;11.48;;;3.53;;
34902;SDS011;21114;44.840;0.214;2023-04-24T04:01:14;15.10;;;5.43;;
34902;SDS011;21114;44.840;0.214;2023-04-24T04:04:29;7.72;;;4.03;;
34902;SDS011;21114;44.840;0.214;2023-04-24T04:06:55;8.68;;;4.00;;
34902;SDS011;21114;44.840;0.214;2023-04-24T04:09:21;8.93;;;3.60;;
34902;SDS011;21114;44.840;0.214;2023-04-24T04:12:36;11.07;;;3.63;;
34902;SDS011;21114;44.840;0.214;2023-04-24T04:15:02;9.13;;;3.63;;
34902;SDS011;21114;44.840;0.214;2023-04-24T04:17:28;6.63;;;3.75;;
34902;SDS011;21114;44.840;0.214;2023-04-24T04:19:54;6.20;;;3.33;;
34902;SDS011;21114;44.840;0.214;2023-04-24T04:22:21;7.93;;;3.70;;
34902;SDS011;21114;44.840;0.214;2023-04-24T04:24:47;5.28;;;3.15;;
34902;SDS011;21114;44.840;0.214;2023-04-24T04:27:13;8.48;;;3.00;;
34902;SDS011;21114;44.840;0.214;2023-04-24T04:29:41;7.35;;;3.45;;
34902;SDS011;21114;44.840;0.214;2023-04-24T04:32:07;8.55;;;3.75;;
34902;SDS011;21114;44.840;0.214;2023-04-24T04:35:10;8.20;;;3.03;;
34902;SDS011;21114;44.840;0.214;2023-04-24T04:37:36;10.90;;;3.83;;
34902;SDS011;21114;44.840;0.214;2023-04-24T04:40:03;5.70;;;3.45;;
34902;SDS011;21114;44.840;0.214;2023-04-24T04:42:31;10.88;;;3.80;;
34902;SDS011;21114;44.840;0.214;2023-04-24T04:45:46;7.82;;;3.58;;
34902;SDS011;21114;44.840;0.214;2023-04-24T04:48:13;6.75;;;3.50;;
34902;SDS011;21114;44.840;0.214;2023-04-24T04:50:42;3.97;;;3.17;;
34902;SDS011;21114;44.840;0.214;2023-04-24T04:53:08;10.88;;;3.10;;
34902;SDS011;21114;44.840;0.214;2023-04-24T04:55:34;7.57;;;4.50;;
34902;SDS011;21114;44.840;0.214;2023-04-24T04:58:00;12.38;;;4.18;;
34902;SDS011;21114;44.840;0.214;2023-04-24T05:00:26;8.93;;;4.75;;
34902;SDS011;21114;44.840;0.214;2023-04-24T05:02:54;7.25;;;4.30;;
34902;SDS011;21114;44.840;0.214;2023-04-24T05:05:20;12.55;;;5.22;;
34902;SDS011;21114;44.840;0.214;2023-04-24T05:07:46;9.27;;;4.53;;
34902;SDS011;21114;44.840;0.214;2023-04-24T05:10:12;7.93;;;3.13;;
34902;SDS011;21114;44.840;0.214;2023-04-24T05:12:38;6.78;;;3.15;;
34902;SDS011;21114;44.840;0.214;2023-04-24T05:15:52;9.18;;;3.30;;
34902;SDS011;21114;44.840;0.214;2023-04-24T05:18:18;10.88;;;5.13;;
34902;SDS011;21114;44.840;0.214;2023-04-24T05:20:44;11.43;;;4.35;;
34902;SDS011;21114;44.840;0.214;2023-04-24T05:23:10;7.22;;;4.03;;
34902;SDS011;21114;44.840;0.214;2023-04-24T05:25:37;9.18;;;3.70;;
34902;SDS011;21114;44.840;0.214;2023-04-24T05:28:05;8.07;;;4.20;;
34902;SDS011;21114;44.840;0.214;2023-04-24T05:30:31;11.23;;;4.20;;
34902;SDS011;21114;44.840;0.214;2023-04-24T05:32:57;22.45;;;5.00;;
34902;SDS011;21114;44.840;0.214;2023-04-24T05:35:23;10.52;;;3.58;;
34902;SDS011;21114;44.840;0.214;2023-04-24T05:37:49;8.07;;;4.68;;
34902;SDS011;21114;44.840;0.214;2023-04-24T05:40:15;10.27;;;5.03;;
34902;SDS011;21114;44.840;0.214;2023-04-24T05:42:41;10.57;;;3.75;;
34902;SDS011;21114;44.840;0.214;2023-04-24T05:45:07;11.13;;;3.78;;
34902;SDS011;21114;44.840;0.214;2023-04-24T05:47:36;6.07;;;3.10;;
34902;SDS011;21114;44.840;0.214;2023-04-24T05:50:02;8.32;;;4.15;;
34902;SDS011;21114;44.840;0.214;2023-04-24T05:53:03;9.25;;;5.60;;
34902;SDS011;21114;44.840;0.214;2023-04-24T05:56:18;8.40;;;3.83;;
34902;SDS011;21114;44.840;0.214;2023-04-24T05:58:45;7.75;;;3.58;;
34902;SDS011;21114;44.840;0.214;2023-04-24T06:01:59;8.45;;;4.40;;
34902;SDS011;21114;44.840;0.214;2023-04-24T06:04:25;13.82;;;3.67;;
34902;SDS011;21114;44.840;0.214;2023-04-24T06:06:51;6.35;;;3.00;;
34902;SDS011;21114;44.840;0.214;2023-04-24T06:09:21;7.43;;;3.15;;
34902;SDS011;21114;44.840;0.214;2023-04-24T06:12:35;6.65;;;4.20;;
34902;SDS011;21114;44.840;0.214;2023-04-24T06:15:02;9.35;;;3.28;;
34902;SDS011;21114;44.840;0.214;2023-04-24T06:17:28;9.50;;;3.83;;
34902;SDS011;21114;44.840;0.214;2023-04-24T06:19:54;7.97;;;2.95;;
34902;SDS011;21114;44.840;0.214;2023-04-24T06:22:20;10.13;;;4.18;;
34902;SDS011;21114;44.840;0.214;2023-04-24T06:24:46;7.65;;;3.95;;
34902;SDS011;21114;44.840;0.214;2023-04-24T06:27:13;9.32;;;2.85;;
34902;SDS011;21114;44.840;0.214;2023-04-24T06:29:39;12.93;;;3.45;;
34902;SDS011;21114;44.840;0.214;2023-04-24T06:32:05;8.30;;;3.15;;
34902;SDS011;21114;44.840;0.214;2023-04-24T06:34:32;6.68;;;4.40;;
34902;SDS011;21114;44.840;0.214;2023-04-24T06:36:59;6.50;;;4.57;;
34902;SDS011;21114;44.840;0.214;2023-04-24T06:39:25;10.82;;;3.97;;
34902;SDS011;21114;44.840;0.214;2023-04-24T06:41:51;17.35;;;5.85;;
34902;SDS011;21114;44.840;0.214;2023-04-24T06:44:18;7.10;;;4.20;;
34902;SDS011;21114;44.840;0.214;2023-04-24T06:46:44;11.63;;;5.60;;
34902;SDS011;21114;44.840;0.214;2023-04-24T06:49:10;9.60;;;5.22;;
34902;SDS011;21114;44.840;0.214;2023-04-24T06:51:36;7.88;;;3.60;;
34902;SDS011;21114;44.840;0.214;2023-04-24T06:54:02;15.10;;;7.32;;
34902;SDS011;21114;44.840;0.214;2023-04-24T06:56:28;9.63;;;4.50;;
34902;SDS011;21114;44.840;0.214;2023-04-24T06:58:54;10.60;;;4.68;;
34902;SDS011;21114;44.840;0.214;2023-04-24T07:01:20;6.88;;;3.33;;
34902;SDS011;21114;44.840;0.214;2023-04-24T07:03:46;7.32;;;4.18;;
34902;SDS011;21114;44.840;0.214;2023-04-24T07:06:12;16.02;;;7.10;;
34902;SDS011;21114;44.840;0.214;2023-04-24T07:08:39;7.82;;;6.25;;
34902;SDS011;21114;44.840;0.214;2023-04-24T07:11:06;8.35;;;3.90;;
34902;SDS011;21114;44.840;0.214;2023-04-24T07:13:33;9.77;;;3.55;;
34902;SDS011;21114;44.840;0.214;2023-04-24T07:16:00;7.38;;;3.60;;
34902;SDS011;21114;44.840;0.214;2023-04-24T07:18:26;10.35;;;5.05;;
34902;SDS011;21114;44.840;0.214;2023-04-24T07:20:52;8.80;;;3.13;;
34902;SDS011;21114;44.840;0.214;2023-04-24T07:23:19;12.15;;;4.75;;
34902;SDS011;21114;44.840;0.214;2023-04-24T07:26:36;9.25;;;3.35;;
34902;SDS011;21114;44.840;0.214;2023-04-24T07:29:51;5.90;;;3.70;;
34902;SDS011;21114;44.840;0.214;2023-04-24T07:32:17;9.00;;;3.88;;
34902;SDS011;21114;44.840;0.214;2023-04-24T07:34:43;6.65;;;3.20;;
34902;SDS011;21114;44.840;0.214;2023-04-24T07:37:09;11.55;;;3.60;;
34902;SDS011;21114;44.840;0.214;2023-04-24T07:39:35;10.98;;;3.90;;
34902;SDS011;21114;44.840;0.214;2023-04-24T07:42:01;11.13;;;3.08;;
34902;SDS011;21114;44.840;0.214;2023-04-24T07:44:27;6.25;;;2.60;;
34902;SDS011;21114;44.840;0.214;2023-04-24T07:46:53;6.07;;;2.65;;
34902;SDS011;21114;44.840;0.214;2023-04-24T07:49:19;7.13;;;2.83;;
34902;SDS011;21114;44.840;0.214;2023-04-24T07:51:45;9.90;;;3.40;;
34902;SDS011;21114;44.840;0.214;2023-04-24T07:54:11;5.88;;;2.60;;
34902;SDS011;21114;44.840;0.214;2023-04-24T07:56:37;11.25;;;3.63;;
34902;SDS011;21114;44.840;0.214;2023-04-24T07:59:04;4.10;;;2.47;;
34902;SDS011;21114;44.840;0.214;2023-04-24T08:01:30;12.02;;;3.63;;
34902;SDS011;21114;44.840;0.214;2023-04-24T08:03:56;9.25;;;3.53;;
34902;SDS011;21114;44.840;0.214;2023-04-24T08:06:22;5.30;;;2.40;;
34902;SDS011;21114;44.840;0.214;2023-04-24T08:08:49;15.00;;;4.55;;
34902;SDS011;21114;44.840;0.214;2023-04-24T08:11:16;7.85;;;3.15;;
34902;SDS011;21114;44.840;0.214;2023-04-24T08:13:42;4.78;;;2.33;;
34902;SDS011;21114;44.840;0.214;2023-04-24T08:16:08;12.90;;;3.03;;
34902;SDS011;21114;44.840;0.214;2023-04-24T08:18:34;9.65;;;2.90;;
34902;SDS011;21114;44.840;0.214;2023-04-24T08:21:01;6.90;;;2.72;;
34902;SDS011;21114;44.840;0.214;2023-04-24T08:23:27;4.80;;;2.35;;
34902;SDS011;21114;44.840;0.214;2023-04-24T08:25:54;8.13;;;3.35;;
34902;SDS011;21114;44.840;0.214;2023-04-24T08:28:20;5.68;;;2.72;;
34902;SDS011;21114;44.840;0.214;2023-04-24T08:30:46;6.55;;;2.35;;
34902;SDS011;21114;44.840;0.214;2023-04-24T08:33:13;12.60;;;2.97;;
34902;SDS011;21114;44.840;0.214;2023-04-24T08:36:06;7.47;;;2.88;;
34902;SDS011;21114;44.840;0.214;2023-04-24T08:39:21;4.47;;;2.38;;
34902;SDS011;21114;44.840;0.214;2023-04-24T08:41:48;9.38;;;2.85;;
34902;SDS011;21114;44.840;0.214;2023-04-24T08:45:04;3.78;;;2.13;;
34902;SDS011;21114;44.840;0.214;2023-04-24T08:48:13;7.68;;;2.53;;
34902;SDS011;21114;44.840;0.214;2023-04-24T08:51:30;6.20;;;3.10;;
34902;SDS011;21114;44.840;0.214;2023-04-24T08:54:47;8.80;;;2.53;;
34902;SDS011;21114;44.840;0.214;2023-04-24T08:57:36;5.88;;;2.67;;
34902;SDS011;21114;44.840;0.214;2023-04-24T09:00:51;5.90;;;2.53;;
34902;SDS011;21114;44.840;0.214;2023-04-24T09:07:00;10.55;;;4.30;;
34902;SDS011;21114;44.840;0.214;2023-04-24T09:12:39;6.70;;;2.83;;
34902;SDS011;21114;44.840;0.214;2023-04-24T09:15:54;5.25;;;2.78;;
34902;SDS011;21114;44.840;0.214;2023-04-24T09:18:22;6.47;;;2.45;;
34902;SDS011;21114;44.840;0.214;2023-04-24T09:23:39;4.60;;;2.58;;
34902;SDS011;21114;44.840;0.214;2023-04-24T09:26:05;6.22;;;2.10;;
34902;SDS011;21114;44.840;0.214;2023-04-24T09:28:34;5.45;;;2.70;;
34902;SDS011;21114;44.840;0.214;2023-04-24T09:31:49;6.97;;;3.55;;
34902;SDS011;21114;44.840;0.214;2023-04-24T09:34:18;5.82;;;2.60;;
34902;SDS011;21114;44.840;0.214;2023-04-24T09:37:35;13.45;;;4.53;;
34902;SDS011;21114;44.840;0.214;2023-04-24T09:42:51;5.13;;;1.98;;
34902;SDS011;21114;44.840;0.214;2023-04-24T09:46:10;7.72;;;2.47;;
34902;SDS011;21114;44.840;0.214;2023-04-24T09:48:36;8.20;;;2.33;;
34902;SDS011;21114;44.840;0.214;2023-04-24T09:51:51;4.53;;;2.85;;
34902;SDS011;21114;44.840;0.214;2023-04-24T09:54:18;8.80;;;2.75;;
34902;SDS011;21114;44.840;0.214;2023-04-24T09:57:33;7.60;;;2.47;;
34902;SDS011;21114;44.840;0.214;2023-04-24T09:59:59;7.70;;;2.42;;
34902;SDS011;21114;44.840;0.214;2023-04-24T10:02:25;5.95;;;3.03;;
34902;SDS011;21114;44.840;0.214;2023-04-24T10:04:55;7.88;;;3.17;;
34902;SDS011;21114;44.840;0.214;2023-04-24T10:07:57;6.43;;;2.67;;
34902;SDS011;21114;44.840;0.214;2023-04-24T10:11:11;6.55;;;2.20;;
34902;SDS011;21114;44.840;0.214;2023-04-24T10:14:27;11.48;;;6.03;;
34902;SDS011;21114;44.840;0.214;2023-04-24T10:16:53;7.93;;;2.78;;
34902;SDS011;21114;44.840;0.214;2023-04-24T10:20:12;6.18;;;3.65;;
34902;SDS011;21114;44.840;0.214;2023-04-24T10:22:39;4.28;;;2.22;;
34902;SDS011;21114;44.840;0.214;2023-04-24T10:25:53;5.85;;;2.10;;
34902;SDS011;21114;44.840;0.214;2023-04-24T10:29:13;5.25;;;2.08;;
34902;SDS011;21114;44.840;0.214;2023-04-24T10:32:28;5.75;;;2.10;;
34902;SDS011;21114;44.840;0.214;2023-04-24T10:34:55;5.75;;;2.67;;
34902;SDS011;21114;44.840;0.214;2023-04-24T10:37:21;3.50;;;2.40;;
34902;SDS011;21114;44.840;0.214;2023-04-24T10:40:36;6.47;;;2.20;;
34902;SDS011;21114;44.840;0.214;2023-04-24T10:43:03;5.40;;;2.13;;
34902;SDS011;21114;44.840;0.214;2023-04-24T10:46:19;7.50;;;3.25;;
34902;SDS011;21114;44.840;0.214;2023-04-24T10:49:34;7.05;;;2.55;;
34902;SDS011;21114;44.840;0.214;2023-04-24T10:52:49;6.53;;;3.13;;
34902;SDS011;21114;44.840;0.214;2023-04-24T10:55:38;7.22;;;2.30;;
34902;SDS011;21114;44.840;0.214;2023-04-24T10:58:21;5.18;;;2.28;;
34902;SDS011;21114;44.840;0.214;2023-04-24T11:01:37;3.38;;;2.00;;
34902;SDS011;21114;44.840;0.214;2023-04-24T11:04:52;5.03;;;2.60;;
34902;SDS011;21114;44.840;0.214;2023-04-24T11:07:19;4.28;;;1.85;;
34902;SDS011;21114;44.840;0.214;2023-04-24T11:10:08;6.68;;;3.05;;
34902;SDS011;21114;44.840;0.214;2023-04-24T11:12:34;5.68;;;2.28;;
34902;SDS011;21114;44.840;0.214;2023-04-24T11:15:01;5.15;;;2.20;;
34902;SDS011;21114;44.840;0.214;2023-04-24T11:17:28;3.60;;;1.70;;
34902;SDS011;21114;44.840;0.214;2023-04-24T11:20:44;4.97;;;1.67;;
34902;SDS011;21114;44.840;0.214;2023-04-24T11:23:58;7.72;;;2.40;;
34902;SDS011;21114;44.840;0.214;2023-04-24T11:26:24;2.78;;;2.05;;
34902;SDS011;21114;44.840;0.214;2023-04-24T11:32:26;4.78;;;2.13;;
34902;SDS011;21114;44.840;0.214;2023-04-24T11:35:40;5.15;;;2.58;;
34902;SDS011;21114;44.840;0.214;2023-04-24T11:38:06;2.80;;;1.85;;
34902;SDS011;21114;44.840;0.214;2023-04-24T11:40:33;3.38;;;2.03;;
34902;SDS011;21114;44.840;0.214;2023-04-24T11:42:59;3.85;;;1.95;;
34902;SDS011;21114;44.840;0.214;2023-04-24T11:45:27;3.58;;;2.35;;
34902;SDS011;21114;44.840;0.214;2023-04-24T11:48:44;3.13;;;2.25;;
34902;SDS011;21114;44.840;0.214;2023-04-24T11:52:00;2.35;;;1.33;;
34902;SDS011;21114;44.840;0.214;2023-04-24T11:54:26;5.32;;;3.13;;
34902;SDS011;21114;44.840;0.214;2023-04-24T11:56:52;8.55;;;3.13;;
34902;SDS011;21114;44.840;0.214;2023-04-24T11:59:18;10.15;;;4.85;;
34902;SDS011;21114;44.840;0.214;2023-04-24T12:01:45;4.22;;;2.08;;
34902;SDS011;21114;44.840;0.214;2023-04-24T12:04:55;3.72;;;1.85;;
34902;SDS011;21114;44.840;0.214;2023-04-24T12:07:22;6.35;;;2.33;;
34902;SDS011;21114;44.840;0.214;2023-04-24T12:10:36;4.65;;;2.22;;
34902;SDS011;21114;44.840;0.214;2023-04-24T12:13:02;2.83;;;2.38;;
34902;SDS011;21114;44.840;0.214;2023-04-24T12:15:29;3.95;;;2.17;;
34902;SDS011;21114;44.840;0.214;2023-04-24T12:17:55;4.90;;;1.70;;
34902;SDS011;21114;44.840;0.214;2023-04-24T12:23:54;6.18;;;3.00;;
34902;SDS011;21114;44.840;0.214;2023-04-24T12:26:56;5.88;;;2.47;;
34902;SDS011;21114;44.840;0.214;2023-04-24T12:29:23;5.68;;;1.88;;
34902;SDS011;21114;44.840;0.214;2023-04-24T12:31:49;3.83;;;1.83;;
34902;SDS011;21114;44.840;0.214;2023-04-24T12:35:04;3.72;;;2.65;;
34902;SDS011;21114;44.840;0.214;2023-04-24T12:37:32;5.47;;;2.92;;
34902;SDS011;21114;44.840;0.214;2023-04-24T12:42:42;5.75;;;1.90;;
34902;SDS011;21114;44.840;0.214;2023-04-24T12:48:35;3.70;;;1.50;;
34902;SDS011;21114;44.840;0.214;2023-04-24T12:51:51;4.78;;;2.50;;
34902;SDS011;21114;44.840;0.214;2023-04-24T12:54:42;5.10;;;2.17;;
34902;SDS011;21114;44.840;0.214;2023-04-24T12:57:09;6.13;;;2.70;;
34902;SDS011;21114;44.840;0.214;2023-04-24T12:59:35;5.28;;;2.55;;
34902;SDS011;21114;44.840;0.214;2023-04-24T13:02:01;4.15;;;2.58;;
34902;SDS011;21114;44.840;0.214;2023-04-24T13:04:28;4.45;;;2.28;;
34902;SDS011;21114;44.840;0.214;2023-04-24T13:07:44;4.82;;;2.08;;
34902;SDS011;21114;44.840;0.214;2023-04-24T13:11:00;4.40;;;2.80;;
34902;SDS011;21114;44.840;0.214;2023-04-24T13:14:10;6.03;;;2.30;;
34902;SDS011;21114;44.840;0.214;2023-04-24T13:17:22;6.90;;;2.17;;
34902;SDS011;21114;44.840;0.214;2023-04-24T13:19:49;8.32;;;2.50;;
34902;SDS011;21114;44.840;0.214;2023-04-24T13:22:54;4.15;;;2.22;;
34902;SDS011;21114;44.840;0.214;2023-04-24T13:25:22;4.07;;;2.20;;
34902;SDS011;21114;44.840;0.214;2023-04-24T13:28:37;3.20;;;2.10;;
34902;SDS011;21114;44.840;0.214;2023-04-24T13:31:03;3.78;;;2.05;;
34902;SDS011;21114;44.840;0.214;2023-04-24T13:34:21;20.23;;;10.82;;
34902;SDS011;21114;44.840;0.214;2023-04-24T13:37:35;3.08;;;1.75;;
34902;SDS011;21114;44.840;0.214;2023-04-24T13:40:01;3.90;;;1.60;;
34902;SDS011;21114;44.840;0.214;2023-04-24T13:42:30;5.53;;;2.28;;
34902;SDS011;21114;44.840;0.214;2023-04-24T13:44:57;6.30;;;2.70;;
34902;SDS011;21114;44.840;0.214;2023-04-24T13:47:23;4.63;;;2.22;;
34902;SDS011;21114;44.840;0.214;2023-04-24T13:49:49;5.22;;;1.90;;
34902;SDS011;21114;44.840;0.214;2023-04-24T13:52:15;5.75;;;2.50;;
34902;SDS011;21114;44.840;0.214;2023-04-24T13:54:41;6.35;;;3.30;;
34902;SDS011;21114;44.840;0.214;2023-04-24T13:57:07;5.15;;;2.55;;
34902;SDS011;21114;44.840;0.214;2023-04-24T13:59:33;5.28;;;2.58;;
34902;SDS011;21114;44.840;0.214;2023-04-24T14:01:59;4.72;;;2.20;;
34902;SDS011;21114;44.840;0.214;2023-04-24T14:04:26;3.00;;;1.77;;
34902;SDS011;21114;44.840;0.214;2023-04-24T14:06:52;5.22;;;3.22;;
34902;SDS011;21114;44.840;0.214;2023-04-24T14:09:18;6.05;;;2.20;;
34902;SDS011;21114;44.840;0.214;2023-04-24T14:11:44;5.60;;;2.53;;
34902;SDS011;21114;44.840;0.214;2023-04-24T14:14:10;5.47;;;2.05;;
34902;SDS011;21114;44.840;0.214;2023-04-24T14:16:36;5.65;;;2.05;;
34902;SDS011;21114;44.840;0.214;2023-04-24T14:19:51;5.47;;;1.83;;
34902;SDS011;21114;44.840;0.214;2023-04-24T14:22:21;4.25;;;1.98;;
34902;SDS011;21114;44.840;0.214;2023-04-24T14:24:47;7.15;;;5.45;;
34902;SDS011;21114;44.840;0.214;2023-04-24T14:27:13;3.75;;;1.90;;
34902;SDS011;21114;44.840;0.214;2023-04-24T14:29:39;2.97;;;1.60;;
34902;SDS011;21114;44.840;0.214;2023-04-24T14:32:05;3.03;;;1.80;;
34902;SDS011;21114;44.840;0.214;2023-04-24T14:34:33;4.13;;;1.98;;
34902;SDS011;21114;44.840;0.214;2023-04-24T14:36:59;2.45;;;2.05;;
34902;SDS011;21114;44.840;0.214;2023-04-24T14:39:25;6.10;;;2.78;;
34902;SDS011;21114;44.840;0.214;2023-04-24T14:41:52;3.35;;;2.10;;
34902;SDS011;21114;44.840;0.214;2023-04-24T14:44:18;3.75;;;1.70;;
34902;SDS011;21114;44.840;0.214;2023-04-24T14:46:44;2.22;;;1.55;;
34902;SDS011;21114;44.840;0.214;2023-04-24T14:49:10;4.75;;;1.73;;
34902;SDS011;21114;44.840;0.214;2023-04-24T14:51:37;2.70;;;1.42;;
34902;SDS011;21114;44.840;0.214;2023-04-24T14:54:03;14.75;;;2.35;;
34902;SDS011;21114;44.840;0.214;2023-04-24T14:56:29;3.63;;;2.20;;
34902;SDS011;21114;44.840;0.214;2023-04-24T14:58:55;2.72;;;1.65;;
34902;SDS011;21114;44.840;0.214;2023-04-24T15:01:22;2.80;;;1.83;;
34902;SDS011;21114;44.840;0.214;2023-04-24T15:03:49;3.63;;;1.75;;
34902;SDS011;21114;44.840;0.214;2023-04-24T15:06:15;2.17;;;1.20;;
34902;SDS011;21114;44.840;0.214;2023-04-24T15:08:41;4.35;;;1.48;;
34902;SDS011;21114;44.840;0.214;2023-04-24T15:11:07;3.53;;;1.83;;
34902;SDS011;21114;44.840;0.214;2023-04-24T15:14:22;3.67;;;1.30;;
34902;SDS011;21114;44.840;0.214;2023-04-24T15:16:48;3.10;;;1.42;;
34902;SDS011;21114;44.840;0.214;2023-04-24T15:19:14;9.18;;;1.92;;
34902;SDS011;21114;44.840;0.214;2023-04-24T15:21:40;2.30;;;1.58;;
34902;SDS011;21114;44.840;0.214;2023-04-24T15:24:08;2.58;;;1.40;;
34902;SDS011;21114;44.840;0.214;2023-04-24T15:26:34;3.67;;;1.45;;
34902;SDS011;21114;44.840;0.214;2023-04-24T15:29:00;9.88;;;2.53;;
34902;SDS011;21114;44.840;0.214;2023-04-24T15:31:26;2.47;;;1.70;;
34902;SDS011;21114;44.840;0.214;2023-04-24T15:33:52;2.30;;;1.65;;
34902;SDS011;21114;44.840;0.214;2023-04-24T15:36:18;6.90;;;3.15;;
34902;SDS011;21114;44.840;0.214;2023-04-24T15:38:46;3.97;;;1.27;;
34902;SDS011;21114;44.840;0.214;2023-04-24T15:41:12;4.10;;;1.38;;
34902;SDS011;21114;44.840;0.214;2023-04-24T15:43:38;4.78;;;1.90;;
34902;SDS011;21114;44.840;0.214;2023-04-24T15:46:06;3.58;;;1.27;;
34902;SDS011;21114;44.840;0.214;2023-04-24T15:48:32;3.00;;;1.27;;
34902;SDS011;21114;44.840;0.214;2023-04-24T15:50:58;2.33;;;1.27;;
34902;SDS011;21114;44.840;0.214;2023-04-24T15:53:25;2.13;;;1.10;;
34902;SDS011;21114;44.840;0.214;2023-04-24T15:55:52;2.50;;;1.70;;
34902;SDS011;21114;44.840;0.214;2023-04-24T15:58:19;2.72;;;1.35;;
34902;SDS011;21114;44.840;0.214;2023-04-24T16:01:34;2.28;;;1.33;;
34902;SDS011;21114;44.840;0.214;2023-04-24T16:04:00;5.05;;;1.42;;